createdAt,value
2019-04-07T00:00:00.365Z,65.23
2019-04-07T00:02:05.020Z,64.63
2019-04-07T00:04:09.302Z,69.83
2019-04-07T00:06:13.757Z,66.77
2019-04-07T00:08:17.932Z,62.67
2019-04-07T00:10:21.779Z,71.77
2019-04-07T00:12:25.717Z,60.83
2019-04-07T00:14:30.030Z,58.00
2019-04-07T00:16:34.237Z,65.27
2019-04-07T00:18:38.803Z,53.50
2019-04-07T00:20:42.756Z,63.50
2019-04-07T00:22:46.672Z,60.90
2019-04-07T00:24:50.933Z,56.07
2019-04-07T00:26:54.770Z,59.57
2019-04-07T00:28:58.734Z,54.20
2019-04-07T00:31:02.727Z,57.10
2019-04-07T00:33:06.793Z,63.90
2019-04-07T00:35:22.143Z,57.50
2019-04-07T00:37:17.103Z,61.13
2019-04-07T00:39:21.137Z,65.30
2019-04-07T00:41:25.047Z,55.27
2019-04-07T00:43:29.207Z,56.20
2019-04-07T00:45:33.785Z,62.87
2019-04-07T00:47:38.170Z,59.97
2019-04-07T00:49:42.651Z,60.33
2019-04-07T00:51:47.567Z,60.73
2019-04-07T00:53:51.944Z,57.27
2019-04-07T00:55:56.262Z,63.00
2019-04-07T00:58:00.359Z,56.87
2019-04-07T01:00:07.917Z,63.83
2019-04-07T01:02:12.274Z,57.53
2019-04-07T01:04:16.450Z,56.80
2019-04-07T01:06:20.533Z,64.07
2019-04-07T01:08:24.454Z,57.40
2019-04-07T01:10:28.339Z,59.30
2019-04-07T01:12:32.677Z,51.47
2019-04-07T01:14:36.798Z,52.80
2019-04-07T01:16:40.849Z,57.07
2019-04-07T01:18:44.675Z,57.43
2019-04-07T01:20:48.609Z,60.57
2019-04-07T01:22:52.869Z,54.50
2019-04-07T01:24:57.005Z,54.90
2019-04-07T01:27:00.954Z,67.50
2019-04-07T01:29:05.543Z,58.97
2019-04-07T01:31:09.705Z,50.30
2019-04-07T01:33:13.829Z,58.27
2019-04-07T01:35:17.758Z,58.83
2019-04-07T01:37:21.655Z,55.77
2019-04-07T01:39:25.658Z,53.03
2019-04-07T01:41:48.855Z,62.20
2019-04-07T01:44:00.084Z,62.20
2019-04-07T01:46:22.139Z,55.47
2019-04-07T01:48:39.868Z,55.20
2019-04-07T01:51:05.738Z,55.87
2019-04-07T01:53:16.736Z,50.50
2019-04-07T01:55:48.544Z,56.97
2019-04-07T01:58:23.819Z,54.87
2019-04-07T02:00:53.198Z,54.40
2019-04-07T02:03:09.979Z,52.90
2019-04-07T02:05:31.164Z,71.90
2019-04-07T02:07:57.017Z,53.20
2019-04-07T02:10:38.277Z,52.57
2019-04-07T02:13:07.574Z,52.97
2019-04-07T02:15:29.373Z,57.97
2019-04-07T02:17:51.543Z,56.37
2019-04-07T02:20:20.002Z,53.67
2019-04-07T02:22:42.426Z,55.27
2019-04-07T02:24:56.438Z,56.23
2019-04-07T02:27:19.727Z,56.07
2019-04-07T02:29:50.295Z,58.93
2019-04-07T02:32:03.633Z,59.13
2019-04-07T02:34:20.072Z,53.87
2019-04-07T02:36:31.948Z,54.23
2019-04-07T02:38:47.756Z,50.30
2019-04-07T02:41:09.071Z,52.60
2019-04-07T02:43:32.761Z,57.63
2019-04-07T02:45:45.557Z,57.20
2019-04-07T02:48:12.531Z,60.37
2019-04-07T02:50:38.731Z,54.10
2019-04-07T02:52:59.421Z,66.47
2019-04-07T02:55:16.584Z,60.17
2019-04-07T02:57:34.554Z,60.47
2019-04-07T03:00:04.544Z,62.03
2019-04-07T03:02:23.873Z,54.43
2019-04-07T03:04:56.641Z,61.80
2019-04-07T03:07:21.726Z,66.30
2019-04-07T03:09:51.703Z,57.37
2019-04-07T03:12:07.300Z,61.87
2019-04-07T03:14:28.706Z,60.93
2019-04-07T03:16:52.395Z,58.13
2019-04-07T03:19:02.836Z,73.30
2019-04-07T03:21:29.006Z,70.10
2019-04-07T03:23:49.754Z,74.03
2019-04-07T03:26:12.761Z,73.40
2019-04-07T03:28:38.536Z,65.73
2019-04-07T03:30:57.246Z,70.87
2019-04-07T03:33:13.612Z,75.33
2019-04-07T03:35:25.924Z,69.93
2019-04-07T03:37:44.135Z,61.80
2019-04-07T03:40:13.848Z,72.30
2019-04-07T03:42:27.423Z,70.60
2019-04-07T03:44:49.726Z,60.23
2019-04-07T03:47:22.318Z,58.87
2019-04-07T03:49:45.661Z,64.20
2019-04-07T03:52:03.570Z,68.00
2019-04-07T03:54:19.062Z,64.07
2019-04-07T03:56:34.092Z,62.40
2019-04-07T03:59:03.523Z,66.47
2019-04-07T04:01:33.732Z,61.60
2019-04-07T04:03:44.081Z,64.90
2019-04-07T04:06:00.571Z,63.93
2019-04-07T04:08:31.386Z,60.40
2019-04-07T04:10:40.987Z,61.57
2019-04-07T04:13:00.811Z,66.70
2019-04-07T04:15:18.735Z,62.20
2019-04-07T04:17:22.900Z,67.70
2019-04-07T04:19:28.414Z,54.23
2019-04-07T04:21:33.162Z,60.83
2019-04-07T04:23:40.040Z,66.77
2019-04-07T04:25:43.088Z,59.27
2019-04-07T04:27:47.168Z,58.90
2019-04-07T04:29:53.036Z,62.83
2019-04-07T04:31:57.192Z,57.30
2019-04-07T04:34:01.659Z,59.73
2019-04-07T04:36:05.892Z,60.10
2019-04-07T04:38:10.375Z,71.97
2019-04-07T04:40:14.590Z,74.40
2019-04-07T04:42:18.584Z,64.23
2019-04-07T04:44:24.034Z,60.27
2019-04-07T04:46:28.246Z,64.63
2019-04-07T04:48:32.271Z,61.90
2019-04-07T04:50:36.205Z,67.03
2019-04-07T04:52:40.801Z,71.03
2019-04-07T04:54:44.872Z,63.17
2019-04-07T04:56:48.895Z,61.40
2019-04-07T04:58:53.276Z,62.43
2019-04-07T05:00:57.794Z,57.10
2019-04-07T05:03:02.734Z,53.87
2019-04-07T05:05:09.402Z,51.77
2019-04-07T05:07:13.195Z,59.13
2019-04-07T05:09:17.918Z,59.03
2019-04-07T05:11:21.999Z,63.67
2019-04-07T05:13:26.017Z,63.93
2019-04-07T05:15:30.075Z,64.90
2019-04-07T05:17:34.007Z,56.33
2019-04-07T05:19:37.939Z,58.97
2019-04-07T05:21:41.788Z,60.73
2019-04-07T05:23:46.016Z,65.70
2019-04-07T05:25:50.462Z,63.70
2019-04-07T05:27:54.661Z,67.10
2019-04-07T05:29:58.645Z,63.50
2019-04-07T05:32:02.485Z,55.67
2019-04-07T05:34:06.571Z,60.43
2019-04-07T05:36:10.725Z,51.90
2019-04-07T05:38:14.696Z,55.97
2019-04-07T05:40:21.297Z,53.73
2019-04-07T05:42:25.312Z,52.40
2019-04-07T05:44:29.345Z,60.07
2019-04-07T05:46:33.552Z,57.20
2019-04-07T05:48:38.228Z,59.00
2019-04-07T05:50:42.199Z,60.03
2019-04-07T05:52:46.587Z,56.87
2019-04-07T05:54:51.540Z,60.67
2019-04-07T05:56:58.726Z,53.10
2019-04-07T05:59:01.795Z,51.57
2019-04-07T06:01:06.345Z,53.47
2019-04-07T06:03:11.188Z,58.97
2019-04-07T06:05:16.210Z,63.30
2019-04-07T06:07:21.256Z,58.43
2019-04-07T06:09:26.423Z,58.30
2019-04-07T06:11:33.032Z,58.43
2019-04-07T06:13:36.302Z,61.23
2019-04-07T06:15:40.359Z,59.03
2019-04-07T06:17:44.591Z,58.13
2019-04-07T06:19:50.689Z,58.83
2019-04-07T06:21:54.112Z,54.07
2019-04-07T06:23:59.833Z,48.13
2019-04-07T06:26:06.499Z,60.07
2019-04-07T06:28:09.652Z,50.70
2019-04-07T06:30:14.547Z,57.03
2019-04-07T06:32:18.578Z,62.97
2019-04-07T06:34:23.742Z,51.30
2019-04-07T06:36:27.760Z,49.80
2019-04-07T06:38:34.977Z,56.77
2019-04-07T06:40:37.338Z,56.43
2019-04-07T06:42:43.945Z,55.83
2019-04-07T06:44:50.284Z,51.57
2019-04-07T06:47:03.432Z,48.00
2019-04-07T06:49:13.248Z,53.77
2019-04-07T06:51:29.218Z,64.40
2019-04-07T06:53:51.368Z,50.90
2019-04-07T06:56:03.242Z,47.60
2019-04-07T06:58:12.390Z,51.20
2019-04-07T07:00:30.060Z,50.60
2019-04-07T07:02:56.502Z,48.87
2019-04-07T07:05:20.323Z,48.20
2019-04-07T07:07:42.696Z,56.83
2019-04-07T07:10:06.585Z,50.50
2019-04-07T07:12:23.485Z,50.57
2019-04-07T07:14:44.522Z,44.23
2019-04-07T07:17:09.098Z,51.40
2019-04-07T07:19:31.564Z,44.40
2019-04-07T07:22:12.602Z,44.77
2019-04-07T07:24:15.222Z,41.37
2019-04-07T07:26:18.108Z,47.50
2019-04-07T07:28:22.727Z,41.90
2019-04-07T07:30:27.190Z,42.10
2019-04-07T07:32:35.579Z,43.70
2019-04-07T07:34:39.853Z,43.90
2019-04-07T07:36:42.837Z,38.83
2019-04-07T07:38:57.533Z,40.30
2019-04-07T07:40:52.658Z,39.60
2019-04-07T07:42:59.095Z,45.17
2019-04-07T07:45:02.644Z,39.30
2019-04-07T07:47:06.934Z,40.77
2019-04-07T07:49:11.562Z,43.80
2019-04-07T07:51:16.387Z,45.87
2019-04-07T07:53:23.722Z,40.07
2019-04-07T07:55:26.443Z,40.63
2019-04-07T07:57:30.562Z,33.83
2019-04-07T07:59:37.996Z,31.23
2019-04-07T08:01:44.263Z,41.40
2019-04-07T08:03:46.876Z,37.83
2019-04-07T08:05:51.230Z,36.97
2019-04-07T08:07:55.227Z,28.70
2019-04-07T08:09:59.605Z,35.43
2019-04-07T08:12:03.826Z,33.50
2019-04-07T08:14:07.860Z,31.50
2019-04-07T08:16:12.297Z,37.23
2019-04-07T08:18:18.876Z,33.17
2019-04-07T08:20:23.146Z,35.27
2019-04-07T08:22:33.768Z,32.53
2019-04-07T08:24:33.046Z,29.70
2019-04-07T08:26:36.903Z,32.27
2019-04-07T08:28:41.000Z,33.07
2019-04-07T08:30:47.438Z,34.77
2019-04-07T08:32:51.253Z,30.43
2019-04-07T08:34:55.920Z,31.80
2019-04-07T08:37:00.781Z,32.33
2019-04-07T08:39:18.554Z,36.37
2019-04-07T08:41:15.430Z,34.60
2019-04-07T08:43:22.826Z,33.23
2019-04-07T08:45:30.011Z,29.00
2019-04-07T08:47:33.449Z,30.80
2019-04-07T08:49:38.083Z,30.33
2019-04-07T08:51:42.760Z,31.13
2019-04-07T08:53:47.318Z,28.20
2019-04-07T08:55:54.371Z,28.10
2019-04-07T08:58:00.086Z,32.80
2019-04-07T09:00:05.082Z,26.73
2019-04-07T09:02:09.221Z,28.97
2019-04-07T09:04:15.085Z,26.87
2019-04-07T09:06:19.625Z,30.03
2019-04-07T09:08:24.077Z,35.20
2019-04-07T09:10:40.515Z,33.63
2019-04-07T09:12:45.058Z,32.13
2019-04-07T09:14:49.214Z,31.13
2019-04-07T09:17:08.261Z,34.77
2019-04-07T09:19:37.401Z,32.27
2019-04-07T09:22:00.660Z,32.90
2019-04-07T09:24:15.037Z,28.33
2019-04-07T09:26:44.567Z,27.97
2019-04-07T09:29:08.362Z,29.10
2019-04-07T09:31:20.676Z,31.40
2019-04-07T09:33:56.161Z,25.30
2019-04-07T09:36:09.029Z,27.90
2019-04-07T09:38:31.107Z,26.50
2019-04-07T09:40:54.140Z,23.27
2019-04-07T09:43:18.931Z,28.07
2019-04-07T09:45:30.123Z,23.50
2019-04-07T09:47:59.960Z,28.07
2019-04-07T09:50:28.565Z,22.53
2019-04-07T09:52:51.861Z,22.27
2019-04-07T09:55:33.463Z,19.93
2019-04-07T09:57:45.081Z,23.40
2019-04-07T10:00:07.641Z,28.17
2019-04-07T10:02:22.323Z,21.00
2019-04-07T10:05:03.591Z,21.20
2019-04-07T10:07:25.995Z,24.30
2019-04-07T10:10:03.632Z,23.53
2019-04-07T10:12:15.114Z,17.50
2019-04-07T10:14:45.476Z,19.50
2019-04-07T10:17:08.749Z,19.43
2019-04-07T10:19:32.757Z,21.60
2019-04-07T10:21:55.130Z,17.87
2019-04-07T10:24:13.006Z,27.13
2019-04-07T10:26:28.012Z,14.70
2019-04-07T10:28:43.057Z,17.50
2019-04-07T10:30:56.818Z,19.47
2019-04-07T10:33:14.468Z,21.67
2019-04-07T10:35:25.808Z,14.30
2019-04-07T10:37:51.309Z,18.77
2019-04-07T10:40:16.685Z,17.50
2019-04-07T10:42:38.042Z,16.10
2019-04-07T10:45:02.034Z,14.23
2019-04-07T10:47:30.266Z,17.73
2019-04-07T10:49:44.320Z,13.97
2019-04-07T10:52:10.275Z,20.73
2019-04-07T10:54:34.127Z,16.03
2019-04-07T10:57:06.561Z,15.23
2019-04-07T10:59:16.456Z,18.10
2019-04-07T11:01:39.789Z,15.57
2019-04-07T11:04:01.637Z,16.67
2019-04-07T11:06:21.594Z,13.73
2019-04-07T11:08:43.630Z,16.70
2019-04-07T11:11:13.278Z,12.43
2019-04-07T11:13:36.310Z,16.27
2019-04-07T11:16:01.893Z,15.80
2019-04-07T11:18:13.481Z,14.30
2019-04-07T11:20:24.906Z,15.40
2019-04-07T11:22:46.485Z,15.07
2019-04-07T11:25:08.403Z,13.60
2019-04-07T11:27:27.772Z,16.93
2019-04-07T11:29:39.693Z,16.67
2019-04-07T11:32:12.871Z,16.80
2019-04-07T11:34:23.839Z,23.67
2019-04-07T11:36:41.064Z,21.27
2019-04-07T11:38:53.486Z,16.97
2019-04-07T11:41:21.611Z,17.57
2019-04-07T11:43:43.165Z,16.53
2019-04-07T11:46:06.879Z,13.47
2019-04-07T11:48:29.469Z,14.90
2019-04-07T11:50:52.529Z,13.40
2019-04-07T11:53:07.386Z,14.10
2019-04-07T11:55:21.723Z,13.47
2019-04-07T11:58:03.633Z,15.17
2019-04-07T12:00:19.451Z,13.63
2019-04-07T12:02:36.379Z,12.33
2019-04-07T12:05:06.512Z,20.08
2019-04-07T12:07:33.439Z,11.90
2019-04-07T12:09:56.306Z,15.00
2019-04-07T12:12:20.138Z,10.20
2019-04-07T12:14:30.813Z,10.40
2019-04-07T12:16:51.366Z,9.90
2019-04-07T12:19:04.485Z,9.68
2019-04-07T12:21:24.020Z,10.45
2019-04-07T12:23:43.345Z,14.18
2019-04-07T12:26:02.142Z,12.90
2019-04-07T12:28:23.589Z,18.23
2019-04-07T12:30:40.494Z,13.50
2019-04-07T12:33:05.015Z,10.28
2019-04-07T12:35:23.664Z,9.87
2019-04-07T12:37:42.413Z,13.30
2019-04-07T12:39:56.131Z,10.57
2019-04-07T12:42:09.939Z,12.03
2019-04-07T12:44:20.102Z,10.47
2019-04-07T12:46:52.933Z,14.53
2019-04-07T12:49:16.427Z,10.27
2019-04-07T12:51:39.726Z,10.50
2019-04-07T12:53:53.661Z,10.53
2019-04-07T12:56:19.699Z,10.63
2019-04-07T12:58:35.667Z,10.60
2019-04-07T13:01:12.729Z,11.13
2019-04-07T13:03:37.575Z,12.13
2019-04-07T13:05:56.269Z,11.03
2019-04-07T13:08:22.562Z,12.63
2019-04-07T13:10:44.888Z,12.15
2019-04-07T13:13:08.013Z,10.18
2019-04-07T13:15:35.034Z,11.73
2019-04-07T13:17:57.430Z,12.60
2019-04-07T13:20:21.086Z,15.40
2019-04-07T13:22:43.601Z,13.83
2019-04-07T13:25:00.053Z,10.82
2019-04-07T13:27:12.432Z,15.93
2019-04-07T13:29:25.703Z,12.60
2019-04-07T13:31:36.446Z,12.70
2019-04-07T13:34:06.261Z,9.95
2019-04-07T13:36:35.827Z,12.68
2019-04-07T13:39:02.009Z,11.90
2019-04-07T13:41:21.474Z,11.78
2019-04-07T13:43:48.644Z,9.95
2019-04-07T13:46:17.557Z,12.95
2019-04-07T13:48:30.170Z,17.82
2019-04-07T13:50:54.394Z,9.83
2019-04-07T13:53:17.524Z,13.10
2019-04-07T13:55:46.997Z,12.88
2019-04-07T13:58:05.476Z,16.70
2019-04-07T14:00:48.370Z,14.05
2019-04-07T14:03:11.143Z,10.53
2019-04-07T14:05:26.292Z,13.20
2019-04-07T14:07:45.080Z,10.05
2019-04-07T14:10:03.797Z,11.43
2019-04-07T14:12:23.801Z,21.33
2019-04-07T14:14:37.222Z,13.08
2019-04-07T14:17:03.919Z,15.68
2019-04-07T14:19:15.127Z,15.10
2019-04-07T14:21:32.300Z,44.83
2019-04-07T14:23:45.963Z,57.93
2019-04-07T14:26:01.345Z,31.73
2019-04-07T14:28:41.156Z,25.45
2019-04-07T14:31:06.530Z,13.50
2019-04-07T14:33:21.859Z,14.68
2019-04-07T14:35:48.896Z,14.78
2019-04-07T14:38:11.996Z,12.00
2019-04-07T14:40:31.322Z,17.10
2019-04-07T14:42:48.235Z,15.20
2019-04-07T14:45:09.960Z,12.13
2019-04-07T14:47:32.443Z,13.33
2019-04-07T14:49:55.064Z,14.07
2019-04-07T14:52:06.906Z,42.07
2019-04-07T14:54:19.557Z,45.53
2019-04-07T14:56:37.578Z,39.47
2019-04-07T14:59:00.737Z,20.43
2019-04-07T15:01:30.398Z,13.60
2019-04-07T15:03:35.241Z,22.13
2019-04-07T15:05:41.679Z,14.37
2019-04-07T15:08:07.319Z,16.63
2019-04-07T15:10:27.519Z,15.63
2019-04-07T15:12:41.410Z,13.50
2019-04-07T15:14:45.947Z,14.33
2019-04-07T15:16:50.234Z,11.70
2019-04-07T15:18:55.010Z,12.67
2019-04-07T15:20:59.404Z,16.40
2019-04-07T15:23:04.341Z,14.90
2019-04-07T15:25:08.988Z,16.03
2019-04-07T15:27:15.567Z,17.37
2019-04-07T15:29:19.931Z,14.60
2019-04-07T15:31:24.901Z,11.30
2019-04-07T15:33:31.439Z,11.37
2019-04-07T15:35:35.250Z,12.97
2019-04-07T15:37:40.623Z,19.10
2019-04-07T15:39:45.838Z,12.40
2019-04-07T15:41:49.915Z,15.93
2019-04-07T15:43:55.191Z,13.03
2019-04-07T15:46:00.119Z,13.57
2019-04-07T15:48:05.013Z,16.17
2019-04-07T15:50:09.616Z,19.00
2019-04-07T15:52:13.772Z,15.30
2019-04-07T15:54:21.506Z,10.70
2019-04-07T15:56:24.035Z,14.50
2019-04-07T15:58:28.759Z,11.67
2019-04-07T16:00:35.174Z,13.37
2019-04-07T16:02:42.188Z,16.90
2019-04-07T16:04:44.927Z,13.20
2019-04-07T16:06:50.388Z,11.83
2019-04-07T16:08:57.292Z,16.93
2019-04-07T16:11:00.781Z,10.50
2019-04-07T16:13:05.318Z,10.20
2019-04-07T16:15:10.842Z,15.60
2019-04-07T16:17:15.749Z,13.20
2019-04-07T16:19:33.107Z,16.30
2019-04-07T16:21:27.712Z,12.97
2019-04-07T16:23:31.699Z,17.73
2019-04-07T16:25:36.561Z,19.17
2019-04-07T16:27:42.347Z,18.30
2019-04-07T16:29:47.108Z,24.07
2019-04-07T16:31:55.781Z,17.50
2019-04-07T16:33:58.285Z,18.67
2019-04-07T16:36:03.334Z,17.20
2019-04-07T16:38:07.489Z,20.87
2019-04-07T16:40:11.832Z,19.73
2019-04-07T16:42:15.897Z,20.63
2019-04-07T16:44:19.742Z,16.83
2019-04-07T16:46:24.982Z,19.60
2019-04-07T16:48:28.948Z,24.03
2019-04-07T16:50:33.037Z,18.93
2019-04-07T17:54:19.510Z,24.52
2019-04-07T17:56:41.629Z,23.60
2019-04-07T17:59:11.265Z,21.87
2019-04-07T18:01:31.308Z,26.07
2019-04-07T18:03:56.359Z,23.70
2019-04-07T18:06:16.064Z,23.87
2019-04-07T18:08:45.330Z,24.37
2019-04-07T18:10:59.760Z,32.67
2019-04-07T18:13:23.788Z,24.03
2019-04-07T18:15:49.929Z,22.43
2019-04-07T18:18:13.380Z,25.40
2019-04-07T18:20:36.290Z,23.13
2019-04-07T18:22:51.726Z,22.37
2019-04-07T18:25:02.321Z,20.53
2019-04-07T18:27:17.785Z,26.80
2019-04-07T18:29:32.175Z,26.13
2019-04-07T18:31:53.296Z,22.70
2019-04-07T18:34:36.496Z,25.07
2019-04-07T18:37:13.273Z,24.80
2019-04-07T18:39:33.649Z,27.90
2019-04-07T18:41:51.686Z,23.00
2019-04-07T18:44:14.004Z,24.43
2019-04-07T18:46:38.094Z,22.43
2019-04-07T18:49:03.277Z,23.42
2019-04-07T18:51:16.035Z,23.10
2019-04-07T18:53:48.662Z,21.67
2019-04-07T18:56:15.260Z,21.40
2019-04-07T18:58:38.725Z,28.80
2019-04-07T19:01:07.341Z,25.40
2019-04-07T19:03:38.503Z,28.27
2019-04-07T19:05:53.042Z,21.60
2019-04-07T19:08:17.503Z,20.30
2019-04-07T19:10:40.122Z,26.37
2019-04-07T19:13:16.170Z,19.97
2019-04-07T19:15:36.516Z,20.40
2019-04-07T19:17:50.430Z,21.97
2019-04-07T19:20:26.085Z,19.50
2019-04-07T19:22:41.155Z,17.23
2019-04-07T19:24:55.829Z,27.97
2019-04-07T19:27:30.094Z,22.42
2019-04-07T19:29:46.023Z,26.83
2019-04-07T19:31:59.737Z,18.70
2019-04-07T19:34:29.938Z,18.20
2019-04-07T19:36:47.937Z,23.70
2019-04-07T19:39:01.458Z,21.33
2019-04-07T19:41:36.657Z,24.80
2019-04-07T19:43:47.941Z,18.30
2019-04-07T19:46:11.543Z,19.50
2019-04-07T19:48:31.601Z,31.23
2019-04-07T19:50:47.297Z,23.83
2019-04-07T19:53:10.006Z,18.53
2019-04-07T19:55:16.583Z,15.30
2019-04-07T19:57:38.555Z,17.47
2019-04-07T20:00:00.613Z,21.43
2019-04-07T20:02:38.940Z,23.93
2019-04-07T20:05:10.200Z,20.67
2019-04-07T20:07:33.108Z,18.87
2019-04-07T20:10:06.585Z,18.73
2019-04-07T20:12:25.017Z,19.30
2019-04-07T20:15:31.728Z,20.57
2019-04-07T20:17:55.162Z,17.03
2019-04-07T20:20:17.523Z,20.93
2019-04-07T20:22:42.273Z,19.07
2019-04-07T20:25:08.742Z,19.33
2019-04-07T20:27:37.879Z,18.47
2019-04-07T20:30:07.132Z,19.30
2019-04-07T20:32:26.066Z,36.43
2019-04-07T20:34:42.998Z,23.33
2019-04-07T20:37:02.499Z,18.67
2019-04-07T20:39:31.936Z,21.97
2019-04-07T20:41:46.831Z,20.67
2019-04-07T20:44:08.798Z,21.10
2019-04-07T20:46:31.576Z,20.30
2019-04-07T20:49:02.765Z,23.47
2019-04-07T20:51:17.378Z,22.83
2019-04-07T20:53:31.037Z,19.33
2019-04-07T20:55:46.554Z,21.83
2019-04-07T20:58:22.100Z,15.60
2019-04-07T21:00:57.702Z,17.73
2019-04-07T21:03:22.141Z,20.13
2019-04-07T21:05:44.512Z,19.90
2019-04-07T21:08:06.360Z,30.37
2019-04-07T21:10:39.296Z,22.27
2019-04-07T21:12:57.511Z,20.33
2019-04-07T21:15:25.867Z,20.70
2019-04-07T21:17:31.646Z,15.97
2019-04-07T21:20:14.557Z,20.63
2019-04-07T21:22:43.245Z,23.13
2019-04-07T21:24:57.428Z,23.40
2019-04-07T21:27:20.530Z,23.23
2019-04-07T21:29:45.357Z,20.53
2019-04-07T21:32:09.646Z,20.30
2019-04-07T21:34:30.656Z,21.97
2019-04-07T21:36:53.759Z,19.50
2019-04-07T21:39:16.972Z,19.70
2019-04-07T21:41:41.509Z,21.53
2019-04-07T21:44:01.630Z,18.33
2019-04-07T21:46:24.641Z,21.80
2019-04-07T21:48:47.470Z,27.20
2019-04-07T21:50:58.911Z,23.83
2019-04-07T21:53:10.485Z,18.67
2019-04-07T21:55:25.771Z,20.83
2019-04-07T21:57:56.747Z,21.17
2019-04-07T22:00:12.674Z,19.93
2019-04-07T22:02:23.662Z,21.33
2019-04-07T22:04:43.651Z,23.20
2019-04-07T22:07:16.255Z,19.30
2019-04-07T22:09:27.935Z,23.00
2019-04-07T22:11:32.603Z,20.30
2019-04-07T22:13:36.859Z,23.97
2019-04-07T22:15:45.902Z,18.40
2019-04-07T22:17:46.413Z,25.20
2019-04-07T22:19:50.404Z,24.40
2019-04-07T22:21:56.666Z,21.07
2019-04-07T22:24:01.306Z,19.30
2019-04-07T22:26:09.526Z,23.83
2019-04-07T22:28:11.730Z,22.60
2019-04-07T22:30:16.889Z,32.93
2019-04-07T22:32:23.058Z,22.90
2019-04-07T22:34:29.830Z,19.83
2019-04-07T22:36:33.562Z,23.17
2019-04-07T22:38:37.699Z,24.90
2019-04-07T22:40:41.880Z,24.70
2019-04-07T22:42:47.540Z,24.50
2019-04-07T22:44:53.798Z,23.67
2019-04-07T22:46:57.311Z,23.53
2019-04-07T22:49:01.233Z,23.27
2019-04-07T22:51:09.912Z,22.47
2019-04-07T22:53:11.459Z,22.23
2019-04-07T22:55:16.497Z,28.10
2019-04-07T22:57:20.567Z,30.43
2019-04-07T22:59:24.677Z,26.67
2019-04-07T23:01:29.270Z,21.90
2019-04-07T23:03:33.255Z,26.63
2019-04-07T23:05:37.431Z,25.80
2019-04-07T23:07:41.378Z,25.10
2019-04-07T23:09:45.475Z,27.03
2019-04-07T23:11:50.299Z,24.50
2019-04-07T23:13:54.291Z,29.23
2019-04-07T23:16:08.702Z,24.43
2019-04-07T23:18:04.097Z,30.80
2019-04-07T23:20:08.344Z,32.60
2019-04-07T23:22:12.499Z,27.60
2019-04-07T23:24:17.145Z,19.70
2019-04-07T23:26:21.181Z,34.17
2019-04-07T23:28:25.247Z,33.50
2019-04-07T23:30:31.337Z,26.57
2019-04-07T23:32:35.400Z,29.63
2019-04-07T23:34:39.444Z,27.33
2019-04-07T23:36:43.662Z,30.33
2019-04-07T23:38:47.643Z,28.80
2019-04-07T23:40:51.709Z,28.27
2019-04-07T23:42:55.652Z,25.30
2019-04-07T23:44:59.599Z,27.63
2019-04-07T23:47:03.643Z,32.07
2019-04-07T23:49:07.603Z,30.77
2019-04-07T23:51:12.241Z,28.77
2019-04-07T23:53:52.576Z,29.40
2019-04-07T23:55:56.538Z,30.00
2019-04-07T23:58:00.681Z,27.13
